createdAt,value
2022-11-05T00:01:10.570Z,7.08
2022-11-05T00:04:14.726Z,7.16
2022-11-05T00:07:26.777Z,6.70
2022-11-05T00:10:21.973Z,7.62
2022-11-05T00:13:27.763Z,7.12
2022-11-05T00:16:31.710Z,7.38
2022-11-05T00:19:16.879Z,7.47
2022-11-05T00:22:20.693Z,7.16
2022-11-05T00:25:18.664Z,6.46
2022-11-05T00:28:04.524Z,6.55
2022-11-05T00:30:49.743Z,7.57
2022-11-05T00:33:35.598Z,7.55
2022-11-05T00:36:21.314Z,6.23
2022-11-05T00:39:06.963Z,6.94
2022-11-05T00:42:10.845Z,7.46
2022-11-05T00:45:02.244Z,6.23
2022-11-05T00:48:06.259Z,7.37
2022-11-05T00:50:52.105Z,6.22
2022-11-05T00:53:37.421Z,7.16
2022-11-05T00:56:22.728Z,7.28
2022-11-05T00:59:08.032Z,7.32
2022-11-05T01:01:53.433Z,7.11
2022-11-05T01:04:38.630Z,7.14
2022-11-05T01:07:24.142Z,6.06
2022-11-05T01:10:09.840Z,6.12
2022-11-05T01:12:55.686Z,6.31
2022-11-05T01:15:42.040Z,7.30
2022-11-05T01:18:27.442Z,6.35
2022-11-05T01:21:14.540Z,7.35
2022-11-05T01:24:00.550Z,6.37
2022-11-05T01:26:45.966Z,7.24
2022-11-05T01:29:31.551Z,6.07
2022-11-05T01:32:16.990Z,6.55
2022-11-05T01:35:04.293Z,6.19
2022-11-05T01:37:49.967Z,6.14
2022-11-05T01:40:35.472Z,7.06
2022-11-05T01:43:23.371Z,6.17
2022-11-05T01:46:08.816Z,7.25
2022-11-05T01:49:02.728Z,7.08
2022-11-05T01:51:49.084Z,6.03
2022-11-05T01:54:35.258Z,7.05
2022-11-05T01:57:21.315Z,6.65
2022-11-05T02:00:07.254Z,6.35
2022-11-05T02:02:58.667Z,6.07
2022-11-05T02:05:45.158Z,6.55
2022-11-05T02:08:53.867Z,5.81
2022-11-05T02:11:39.570Z,7.00
2022-11-05T02:14:25.431Z,6.97
2022-11-05T02:17:35.572Z,6.48
2022-11-05T02:20:40.512Z,6.42
2022-11-05T02:23:44.635Z,7.02
2022-11-05T02:27:14.388Z,6.98
2022-11-05T02:30:26.381Z,6.00
2022-11-05T02:33:57.120Z,6.22
2022-11-05T02:36:58.194Z,5.77
2022-11-05T02:39:54.811Z,5.90
2022-11-05T02:42:53.727Z,6.97
2022-11-05T02:45:48.707Z,6.91
2022-11-05T02:48:57.948Z,6.93
2022-11-05T02:51:55.634Z,6.89
2022-11-05T02:54:59.374Z,5.95
2022-11-05T02:57:47.269Z,6.78
2022-11-05T03:00:48.335Z,6.79
2022-11-05T03:03:47.317Z,5.78
2022-11-05T03:06:35.883Z,6.78
2022-11-05T03:10:10.255Z,6.72
2022-11-05T03:13:09.600Z,6.06
2022-11-05T03:16:05.288Z,6.61
2022-11-05T03:19:06.723Z,6.63
2022-11-05T03:22:02.517Z,6.68
2022-11-05T03:24:56.890Z,6.38
2022-11-05T03:27:47.162Z,6.03
2022-11-05T03:30:35.722Z,5.34
2022-11-05T03:33:31.017Z,6.55
2022-11-05T03:36:23.523Z,6.61
2022-11-05T03:39:13.860Z,6.56
2022-11-05T03:42:02.133Z,6.64
2022-11-05T03:44:55.095Z,5.54
2022-11-05T03:47:44.573Z,5.33
2022-11-05T03:50:48.598Z,6.67
2022-11-05T03:53:42.770Z,6.62
2022-11-05T03:56:34.556Z,6.64
2022-11-05T03:59:20.821Z,5.62
2022-11-05T04:02:06.411Z,5.97
2022-11-05T04:04:53.522Z,5.54
2022-11-05T04:07:57.691Z,6.43
2022-11-05T04:11:01.728Z,6.59
2022-11-05T04:13:47.390Z,6.47
2022-11-05T04:16:51.330Z,6.37
2022-11-05T04:19:57.309Z,5.35
2022-11-05T04:23:01.385Z,6.55
2022-11-05T04:25:47.036Z,6.55
2022-11-05T04:28:52.295Z,6.18
2022-11-05T04:31:38.309Z,5.59
2022-11-05T04:34:24.174Z,6.43
2022-11-05T04:37:09.778Z,5.28
2022-11-05T04:39:55.291Z,5.30
2022-11-05T04:42:40.874Z,5.34
2022-11-05T04:45:29.855Z,5.40
2022-11-05T04:48:14.992Z,6.22
2022-11-05T04:51:00.737Z,5.15
2022-11-05T04:53:47.034Z,6.43
2022-11-05T04:56:38.704Z,5.07
2022-11-05T04:59:24.341Z,6.19
2022-11-05T05:02:09.767Z,5.21
2022-11-05T05:04:55.730Z,5.73
2022-11-05T05:07:42.151Z,6.02
2022-11-05T05:10:27.894Z,5.84
2022-11-05T05:13:13.569Z,4.97
2022-11-05T05:15:59.712Z,5.33
2022-11-05T05:18:46.595Z,6.21
2022-11-05T05:21:41.776Z,5.75
2022-11-05T05:24:27.355Z,5.87
2022-11-05T05:27:13.134Z,5.95
2022-11-05T05:29:59.494Z,6.20
2022-11-05T05:32:45.370Z,5.50
2022-11-05T05:35:31.079Z,4.87
2022-11-05T05:38:16.561Z,5.18
2022-11-05T05:41:02.024Z,5.79
2022-11-05T05:43:47.605Z,6.14
2022-11-05T05:46:33.253Z,6.04
2022-11-05T05:49:18.991Z,6.00
2022-11-05T05:52:04.453Z,5.87
2022-11-05T05:54:49.709Z,5.53
2022-11-05T05:57:35.218Z,6.00
2022-11-05T06:00:20.843Z,6.04
2022-11-05T06:03:06.778Z,4.86
2022-11-05T06:05:52.002Z,5.34
2022-11-05T06:08:37.536Z,4.96
2022-11-05T06:11:24.803Z,6.20
2022-11-05T06:14:13.713Z,5.91
2022-11-05T06:16:59.680Z,6.24
2022-11-05T06:19:45.127Z,6.08
2022-11-05T06:22:30.450Z,6.36
2022-11-05T06:25:15.977Z,6.01
2022-11-05T06:28:01.568Z,6.41
2022-11-05T06:30:51.901Z,6.29
2022-11-05T06:33:38.157Z,6.32
2022-11-05T06:36:23.477Z,5.64
2022-11-05T06:39:12.925Z,6.26
2022-11-05T06:45:05.033Z,5.27
2022-11-05T06:47:58.601Z,5.29
2022-11-05T06:50:45.650Z,6.25
2022-11-05T06:53:31.682Z,5.27
2022-11-05T06:56:17.222Z,6.60
2022-11-05T06:59:03.257Z,6.38
2022-11-05T07:01:48.814Z,6.03
2022-11-05T07:04:34.188Z,5.47
2022-11-05T07:07:19.757Z,5.96
2022-11-05T07:10:07.288Z,6.35
2022-11-05T07:12:53.178Z,5.38
2022-11-05T07:15:39.341Z,6.69
2022-11-05T07:18:25.288Z,5.44
2022-11-05T07:21:11.027Z,6.37
2022-11-05T07:23:56.495Z,6.71
2022-11-05T07:26:42.830Z,6.56
2022-11-05T07:29:28.294Z,6.50
2022-11-05T07:32:14.771Z,6.80
2022-11-05T07:35:02.539Z,6.81
2022-11-05T07:37:50.478Z,6.68
2022-11-05T07:40:37.171Z,6.27
2022-11-05T07:43:24.149Z,6.65
2022-11-05T07:46:13.839Z,6.84
2022-11-05T07:48:59.441Z,5.75
2022-11-05T07:51:45.990Z,6.98
2022-11-05T07:54:31.759Z,7.00
2022-11-05T07:57:17.487Z,7.03
2022-11-05T08:00:03.562Z,6.04
2022-11-05T08:03:10.798Z,6.77
2022-11-05T08:05:56.948Z,7.09
2022-11-05T08:08:43.353Z,7.04
2022-11-05T08:11:29.154Z,6.06
2022-11-05T08:14:14.666Z,6.81
2022-11-05T08:17:00.737Z,7.13
2022-11-05T08:19:46.251Z,6.80
2022-11-05T08:22:31.700Z,7.22
2022-11-05T08:25:17.831Z,7.11
2022-11-05T08:28:10.604Z,6.95
2022-11-05T08:30:57.161Z,6.09
2022-11-05T08:33:42.530Z,7.43
2022-11-05T08:36:28.086Z,7.17
2022-11-05T08:39:16.986Z,6.32
2022-11-05T08:42:03.128Z,7.02
2022-11-05T08:44:48.793Z,6.44
2022-11-05T08:47:34.194Z,7.37
2022-11-05T08:50:19.898Z,7.76
2022-11-05T08:53:06.199Z,7.84
2022-11-05T08:55:51.987Z,6.83
2022-11-05T08:58:37.637Z,6.89
2022-11-05T09:01:23.138Z,6.84
2022-11-05T09:04:08.744Z,7.82
2022-11-05T09:06:54.389Z,8.11
2022-11-05T09:09:39.843Z,8.18
2022-11-05T09:12:25.230Z,8.30
2022-11-05T09:15:11.095Z,7.22
2022-11-05T09:17:57.301Z,8.36
2022-11-05T09:20:43.046Z,8.21
2022-11-05T09:23:28.373Z,8.53
2022-11-05T09:26:14.795Z,7.37
2022-11-05T09:29:00.191Z,8.48
2022-11-05T09:31:45.508Z,8.36
2022-11-05T09:34:31.376Z,8.74
2022-11-05T09:37:17.171Z,8.76
2022-11-05T09:40:03.133Z,7.58
2022-11-05T09:42:52.550Z,7.76
2022-11-05T09:45:38.132Z,7.69
2022-11-05T09:48:28.254Z,8.70
2022-11-05T09:51:22.429Z,8.94
2022-11-05T09:54:11.762Z,8.54
2022-11-05T09:56:59.962Z,8.99
2022-11-05T09:59:51.040Z,9.02
2022-11-05T10:02:50.879Z,9.10
2022-11-05T10:05:38.324Z,9.12
2022-11-05T10:08:29.539Z,9.01
2022-11-05T10:11:23.582Z,8.99
2022-11-05T10:14:18.402Z,8.82
2022-11-05T10:17:28.733Z,8.28
2022-11-05T10:20:24.130Z,8.87
2022-11-05T10:23:18.035Z,9.38
2022-11-05T10:26:11.859Z,9.48
2022-11-05T10:28:57.297Z,9.23
2022-11-05T10:31:43.439Z,9.12
2022-11-05T10:34:33.425Z,9.62
2022-11-05T10:37:21.170Z,8.48
2022-11-05T10:40:18.270Z,9.39
2022-11-05T10:43:12.419Z,9.02
2022-11-05T10:46:20.148Z,8.65
2022-11-05T10:49:24.690Z,9.84
2022-11-05T10:52:22.248Z,8.51
2022-11-05T10:55:29.725Z,9.59
2022-11-05T10:58:15.167Z,9.78
2022-11-05T11:01:19.219Z,9.94
2022-11-05T11:04:13.167Z,9.80
2022-11-05T11:07:00.134Z,8.69
2022-11-05T11:09:49.441Z,9.18
2022-11-05T11:12:42.890Z,9.93
2022-11-05T11:15:32.849Z,10.16
2022-11-05T11:18:33.365Z,10.15
2022-11-05T11:21:24.687Z,9.22
2022-11-05T11:24:20.660Z,10.28
2022-11-05T11:27:11.394Z,10.11
2022-11-05T11:29:59.458Z,10.30
2022-11-05T11:32:46.396Z,9.17
2022-11-05T11:35:35.091Z,9.33
2022-11-05T11:38:23.427Z,10.33
2022-11-05T11:41:11.646Z,10.38
2022-11-05T11:44:02.623Z,10.35
2022-11-05T11:46:54.647Z,10.21
2022-11-05T11:49:44.125Z,9.38
2022-11-05T11:52:35.541Z,10.21
2022-11-05T11:55:22.485Z,10.43
2022-11-05T11:58:10.439Z,10.34
2022-11-05T12:01:21.498Z,10.48
2022-11-05T12:04:16.723Z,10.04
2022-11-05T12:07:14.176Z,9.59
2022-11-05T12:10:21.029Z,10.57
2022-11-05T12:13:18.735Z,10.59
2022-11-05T12:16:25.157Z,10.40
2022-11-05T12:19:49.471Z,10.62
2022-11-05T12:22:53.793Z,10.62
2022-11-05T12:26:03.108Z,10.66
2022-11-05T12:29:18.556Z,10.51
2022-11-05T12:32:26.593Z,10.73
2022-11-05T12:35:30.404Z,10.22
2022-11-05T12:38:18.909Z,10.78
2022-11-05T12:41:08.028Z,10.29
2022-11-05T12:44:11.859Z,10.85
2022-11-05T12:47:28.411Z,10.87
2022-11-05T12:50:29.453Z,10.90
2022-11-05T12:53:33.651Z,10.94
2022-11-05T12:56:31.122Z,10.22
2022-11-05T12:59:18.901Z,10.98
2022-11-05T13:02:25.107Z,10.91
2022-11-05T13:05:19.613Z,11.05
2022-11-05T13:08:10.562Z,9.91
2022-11-05T13:11:01.185Z,10.86
2022-11-05T13:14:16.964Z,11.16
2022-11-05T13:17:09.934Z,11.20
2022-11-05T13:20:17.394Z,11.22
2022-11-05T13:23:15.640Z,11.22
2022-11-05T13:26:19.578Z,11.18
2022-11-05T13:29:15.629Z,11.21
2022-11-05T13:32:14.033Z,10.25
2022-11-05T13:35:23.002Z,11.28
2022-11-05T13:38:37.951Z,11.27
2022-11-05T13:41:50.038Z,11.31
2022-11-05T13:44:50.697Z,11.34
2022-11-05T13:47:54.347Z,10.29
2022-11-05T13:51:09.318Z,11.36
2022-11-05T13:54:37.806Z,11.38
2022-11-05T13:57:48.296Z,11.40
2022-11-05T14:00:43.666Z,10.49
2022-11-05T14:03:29.761Z,11.37
2022-11-05T14:06:27.784Z,11.46
2022-11-05T14:09:20.384Z,11.48
2022-11-05T14:12:14.806Z,11.47
2022-11-05T14:15:11.253Z,11.48
2022-11-05T14:18:04.414Z,11.49
2022-11-05T14:21:02.234Z,11.50
2022-11-05T14:23:54.189Z,11.50
2022-11-05T14:26:40.156Z,11.48
2022-11-05T14:29:36.450Z,11.06
2022-11-05T14:32:23.897Z,11.62
2022-11-05T14:35:37.694Z,11.64
2022-11-05T14:38:28.444Z,11.46
2022-11-05T14:41:14.601Z,10.54
2022-11-05T14:44:06.184Z,11.32
2022-11-05T14:46:54.959Z,11.65
2022-11-05T14:49:53.531Z,11.64
2022-11-05T14:52:50.219Z,11.64
2022-11-05T14:55:39.086Z,11.19
2022-11-05T14:58:36.132Z,10.67
2022-11-05T15:01:34.289Z,11.63
2022-11-05T15:04:40.452Z,11.38
2022-11-05T15:07:35.912Z,11.49
2022-11-05T15:10:27.185Z,10.63
2022-11-05T15:13:34.420Z,11.66
2022-11-05T15:16:25.501Z,10.57
2022-11-05T15:19:37.657Z,11.70
2022-11-05T15:22:31.068Z,11.13
2022-11-05T15:25:21.003Z,11.24
2022-11-05T15:28:27.525Z,11.73
2022-11-05T15:31:13.168Z,11.63
2022-11-05T15:34:19.833Z,11.74
2022-11-05T15:37:11.926Z,11.74
2022-11-05T15:39:57.297Z,10.97
2022-11-05T15:42:42.586Z,11.66
2022-11-05T15:45:27.907Z,10.56
2022-11-05T15:48:15.858Z,11.62
2022-11-05T15:51:01.823Z,11.12
2022-11-05T15:54:15.739Z,11.74
2022-11-05T15:56:57.565Z,11.31
2022-11-05T15:59:47.155Z,11.36
2022-11-05T16:02:35.544Z,10.84
2022-11-05T16:05:22.085Z,10.69
2022-11-05T16:08:18.154Z,10.67
2022-11-05T16:11:04.264Z,11.63
2022-11-05T16:13:51.589Z,11.56
2022-11-05T16:16:38.868Z,11.50
2022-11-05T16:19:42.151Z,11.44
2022-11-05T16:22:45.853Z,11.81
2022-11-05T16:25:42.286Z,10.66
2022-11-05T16:28:30.364Z,11.86
2022-11-05T16:31:24.680Z,11.81
2022-11-05T16:34:33.984Z,10.76
2022-11-05T16:37:23.899Z,11.85
2022-11-05T16:40:30.227Z,11.91
2022-11-05T16:43:25.805Z,11.85
2022-11-05T16:46:13.371Z,11.48
2022-11-05T16:48:58.880Z,11.90
2022-11-05T16:51:44.825Z,11.59
2022-11-05T16:54:31.150Z,11.58
2022-11-05T16:57:29.317Z,11.46
2022-11-05T17:00:17.855Z,11.63
2022-11-05T17:03:04.159Z,11.16
2022-11-05T17:05:49.963Z,11.34
2022-11-05T17:08:36.913Z,11.77
2022-11-05T17:11:22.625Z,10.81
2022-11-05T17:14:13.172Z,11.79
2022-11-05T17:17:01.749Z,10.71
2022-11-05T17:19:47.502Z,11.76
2022-11-05T17:22:33.219Z,11.70
2022-11-05T17:25:18.857Z,10.61
2022-11-05T17:28:05.246Z,11.67
2022-11-05T17:30:52.956Z,10.80
2022-11-05T17:33:39.042Z,11.68
2022-11-05T17:36:25.799Z,10.70
2022-11-05T17:39:11.376Z,11.73
2022-11-05T17:41:57.074Z,11.72
2022-11-05T17:44:42.639Z,11.70
2022-11-05T17:47:28.059Z,11.48
2022-11-05T17:50:15.688Z,11.70
2022-11-05T17:53:01.293Z,11.67
2022-11-05T17:55:47.740Z,10.63
2022-11-05T17:58:34.006Z,11.69
2022-11-05T18:01:35.637Z,10.58
2022-11-05T18:04:21.538Z,10.60
2022-11-05T18:07:10.605Z,10.42
2022-11-05T18:09:56.164Z,11.60
2022-11-05T18:12:43.208Z,11.06
2022-11-05T18:15:29.166Z,11.16
2022-11-05T18:18:14.989Z,10.69
2022-11-05T18:21:00.752Z,10.55
2022-11-05T18:23:46.571Z,11.80
2022-11-05T18:26:32.818Z,11.67
2022-11-05T18:29:18.353Z,11.32
2022-11-05T18:32:04.145Z,10.86
2022-11-05T18:34:49.974Z,11.51
2022-11-05T18:37:37.592Z,11.85
2022-11-05T18:40:23.189Z,11.52
2022-11-05T18:43:08.536Z,11.79
2022-11-05T18:45:56.868Z,11.65
2022-11-05T18:48:42.963Z,10.74
2022-11-05T18:51:28.365Z,11.83
2022-11-05T18:54:14.530Z,10.71
2022-11-05T18:56:59.959Z,11.21
2022-11-05T18:59:47.577Z,11.92
2022-11-05T19:02:33.656Z,11.05
2022-11-05T19:05:29.138Z,11.86
2022-11-05T19:08:15.673Z,11.72
2022-11-05T19:11:06.798Z,12.01
2022-11-05T19:13:52.807Z,11.95
2022-11-05T19:16:38.345Z,10.82
2022-11-05T19:19:23.962Z,11.67
2022-11-05T19:22:10.343Z,11.82
2022-11-05T19:24:56.062Z,10.77
2022-11-05T19:27:42.719Z,10.71
2022-11-05T19:30:28.055Z,11.79
2022-11-05T19:33:13.983Z,11.85
2022-11-05T19:35:59.652Z,11.88
2022-11-05T19:38:45.303Z,11.83
2022-11-05T19:41:31.074Z,11.61
2022-11-05T19:44:16.854Z,11.65
2022-11-05T19:47:02.713Z,10.70
2022-11-05T19:49:48.233Z,11.79
2022-11-05T19:52:33.804Z,11.55
2022-11-05T19:55:19.477Z,11.71
2022-11-05T19:58:04.996Z,11.62
2022-11-05T20:00:50.514Z,11.68
2022-11-05T20:03:37.691Z,11.73
2022-11-05T20:06:28.644Z,11.68
2022-11-05T20:09:23.267Z,10.86
2022-11-05T20:12:09.538Z,11.73
2022-11-05T20:14:55.352Z,10.66
2022-11-05T20:17:42.166Z,11.34
2022-11-05T20:20:27.717Z,11.67
2022-11-05T20:23:14.152Z,11.60
2022-11-05T20:26:00.960Z,11.70
2022-11-05T20:28:46.477Z,10.49
2022-11-05T20:31:31.929Z,11.62
2022-11-05T20:34:17.415Z,11.44
2022-11-05T20:37:03.098Z,11.51
2022-11-05T20:39:48.434Z,11.53
2022-11-05T20:42:36.317Z,11.48
2022-11-05T20:45:23.850Z,11.16
2022-11-05T20:48:10.141Z,11.19
2022-11-05T20:50:57.354Z,11.35
2022-11-05T20:53:43.387Z,10.54
2022-11-05T20:56:31.482Z,11.26
2022-11-05T20:59:17.289Z,10.31
2022-11-05T21:02:02.801Z,11.10
2022-11-05T21:04:48.534Z,11.36
2022-11-05T21:07:35.528Z,11.15
2022-11-05T21:10:21.325Z,10.84
2022-11-05T21:13:07.118Z,10.33
2022-11-05T21:15:55.570Z,10.30
2022-11-05T21:18:41.299Z,11.33
2022-11-05T21:21:27.021Z,10.17
2022-11-05T21:24:12.507Z,10.59
2022-11-05T21:26:58.150Z,11.32
2022-11-05T21:29:43.544Z,10.44
2022-11-05T21:32:29.029Z,10.28
2022-11-05T21:35:14.452Z,11.32
2022-11-05T21:38:00.048Z,11.26
2022-11-05T21:40:45.927Z,11.21
2022-11-05T21:43:31.562Z,11.35
2022-11-05T21:46:17.400Z,11.26
2022-11-05T21:49:02.698Z,10.83
2022-11-05T21:52:06.713Z,11.27
2022-11-05T21:55:10.751Z,11.04
2022-11-05T21:58:16.383Z,10.99
2022-11-05T22:01:04.344Z,10.36
2022-11-05T22:03:50.028Z,10.15
2022-11-05T22:06:35.406Z,11.20
2022-11-05T22:09:20.806Z,10.32
2022-11-05T22:12:06.470Z,10.58
2022-11-05T22:14:52.906Z,11.30
2022-11-05T22:17:42.519Z,10.23
2022-11-05T22:20:31.005Z,10.21
2022-11-05T22:23:16.244Z,11.23
2022-11-05T22:26:02.062Z,11.24
2022-11-05T22:28:48.033Z,11.27
2022-11-05T22:31:36.208Z,10.44
2022-11-05T22:34:21.934Z,11.13
2022-11-05T22:37:07.798Z,11.11
2022-11-05T22:39:53.364Z,11.34
2022-11-05T22:42:38.764Z,11.09
2022-11-05T22:45:24.070Z,11.35
2022-11-05T22:48:09.664Z,11.45
2022-11-05T22:50:55.240Z,11.30
2022-11-05T22:53:45.779Z,11.40
2022-11-05T22:56:35.307Z,10.21
2022-11-05T22:59:21.027Z,11.24
2022-11-05T23:02:09.716Z,10.91
2022-11-05T23:04:55.839Z,11.08
2022-11-05T23:07:59.829Z,10.06
2022-11-05T23:11:03.836Z,9.81
2022-11-05T23:13:49.198Z,9.57
2022-11-05T23:17:04.749Z,9.81
2022-11-05T23:20:08.372Z,9.77
2022-11-05T23:23:12.394Z,10.84
2022-11-05T23:25:59.705Z,9.80
2022-11-05T23:28:45.261Z,10.55
2022-11-05T23:31:49.397Z,9.81
2022-11-05T23:34:35.364Z,10.26
2022-11-05T23:37:40.850Z,10.79
2022-11-05T23:40:29.078Z,9.77
2022-11-05T23:43:33.424Z,10.35
2022-11-05T23:46:38.679Z,9.61
2022-11-05T23:49:24.077Z,10.72
2022-11-05T23:52:09.664Z,10.15
2022-11-05T23:54:54.974Z,9.60
2022-11-05T23:57:40.959Z,9.41
